Archival Weather

NSFA McMurdo Sound

NSFA McMurdo Sound, Antarctica (NZCM)

Report from: Friday, September 23, 2022 8:57 AM UTC
Current time: Sunday, December 4, 2022 12:09 PM UTC

Current weather
Weather history
Weather forecast

Present weatherLight snow, mist
Temperature-20.3°C (-4.5°F)
Wind chill-32.5°C (-26.5°F)
Dew point-24.3°C (-11.7°F)
Winds 15 kts (7.7 m/s, 17.3 mph) Vrb
Wind gusts 25 kts (12.9 m/s, 28.8 mph)
Winds variableWinds variable from East-Southeast (110°) to South (170°)
Visibility1.1 mi. (1.8 km)
Clouds Ceiling: Overcast 1,400 ft. (427 m)
Altimeter28.66 in.Hg (971 mB)
Precip. events Snow began 8:57 AM
Relative humidity70 %
Density altitude-2,995 ft. (-913 m)
Sea-level pressure107.1 kPa (1071 mB, 31.63 in.Hg)
Remarks Fully automated report
System requires maintenance
Special weather observation
Automated weather observing station with precipitation discriminator
Flight conditions Instrument Meteorological Conditions
Raw dataSPECI NZCM 230857Z AUTO 15015G25KT 110V170 1800 -SN BR OVC014 M20/M24 A2866 RMK AO2 SNB0857 SLP712 T12031243 $
An error has occurred. This application may no longer respond until reloaded. Reload 🗙